LMO weather

Vance Brand Airport
Longmont, Colorado, United States

Public forecast

Using degrees Fahrenheit for public forecast. Weather courtesy of forecast.io.

Current aviation weather report (METAR) for Vance Brand Airport

Retrieved 2019/11/14 04:35 UTC (23 minutes ago):

KLMO 140435Z AUTO 36003KT 10SM OVC046 06/00 A3021 RMK AO2 T00581005

Closest aviation forecast (TAF) to Vance Brand Airport

Closest forecast is Rocky Mountain Metropolitan Airport, 15.4 nm (28.6 km) S. Retrieved 2019-11-14 00:22 UTC (5 hours ago):

TAF KBJC 132320Z 1400/1424 08010KT P6SM FEW090 SCT220 FM140100 02010KT P6SM SCT090 SCT220 FM140400 VRB05KT P6SM SCT050 BKN090 FM141000 29006KT P6SM SCT090 FM141800 VRB04KT P6SM FEW220